Time;durP1;ratioP1;P1;durP2;ratioP2;P2;SDS_P1;SDS_P2;PMS_P1;PMS_P2;Temp;Humidity;BMP_temperature;BMP_pressure;BME280_temperature;BME280_humidity;BME280_pressure;Samples;Min_cycle;Max_cycle;Signal;HPM_P1;HPM_P2
2021/05/28 00:02:05;;;;;;;7.33;4.87;;;9.40;99.90;;;;;;6272581;22;20393;-82
2021/05/28 00:04:32;;;;;;;8.37;6.63;;;9.40;99.90;;;;;;6275994;22;20482;-82
2021/05/28 00:06:58;;;;;;;8.17;6.40;;;9.40;99.90;;;;;;6270516;22;20448;-82
2021/05/28 00:09:25;;;;;;;8.57;5.97;;;9.30;99.90;;;;;;6275099;22;20423;-83
2021/05/28 00:11:53;;;;;;;6.07;5.40;;;9.30;99.90;;;;;;6249050;22;20407;-81
2021/05/28 00:14:20;;;;;;;8.20;5.73;;;9.30;99.90;;;;;;6245173;22;20458;-81
2021/05/28 00:16:49;;;;;;;9.77;5.83;;;9.30;99.90;;;;;;6238531;22;20404;-81
2021/05/28 00:19:16;;;;;;;14.60;6.17;;;9.30;99.90;;;;;;6273208;22;20473;-81
2021/05/28 00:21:45;;;;;;;14.70;6.93;;;9.20;99.90;;;;;;6245393;22;20404;-81
2021/05/28 00:24:17;;;;;;;9.63;6.07;;;9.20;99.90;;;;;;6244380;22;20407;-81
2021/05/28 00:26:43;;;;;;;12.17;6.50;;;9.20;99.90;;;;;;6273110;22;20947;-83
2021/05/28 00:29:14;;;;;;;12.40;7.50;;;9.20;99.90;;;;;;6266434;22;20418;-82
2021/05/28 00:31:40;;;;;;;9.53;5.90;;;9.30;99.90;;;;;;6272776;22;20841;-82
2021/05/28 00:34:07;;;;;;;10.50;6.37;;;9.20;99.90;;;;;;6272662;22;20396;-82
2021/05/28 00:36:35;;;;;;;8.00;6.00;;;9.30;99.90;;;;;;6267837;22;20396;-82
2021/05/28 00:39:03;;;;;;;9.20;5.40;;;9.30;99.90;;;;;;6274511;22;20411;-81
2021/05/28 00:41:29;;;;;;;9.23;5.43;;;9.30;99.90;;;;;;6275984;22;20403;-83
2021/05/28 00:43:56;;;;;;;10.33;5.53;;;9.30;99.90;;;;;;6271781;22;20393;-82
2021/05/28 00:46:26;;;;;;;13.83;6.80;;;9.30;99.90;;;;;;6275308;22;20734;-82
2021/05/28 00:48:53;;;;;;;10.20;5.83;;;9.40;99.90;;;;;;6271016;22;20880;-83
2021/05/28 00:51:20;;;;;;;8.13;6.07;;;9.40;99.90;;;;;;6270230;22;21118;-82
2021/05/28 00:53:46;;;;;;;8.73;5.43;;;9.40;99.90;;;;;;6271710;22;20407;-82
2021/05/28 00:56:16;;;;;;;11.33;6.03;;;9.40;99.90;;;;;;6271253;22;20406;-82
2021/05/28 00:58:42;;;;;;;11.63;6.40;;;9.40;99.90;;;;;;6222841;22;20450;-82
2021/05/28 01:01:09;;;;;;;8.10;6.40;;;9.40;99.90;;;;;;6273419;22;21017;-82
2021/05/28 01:03:36;;;;;;;14.13;6.10;;;9.40;99.90;;;;;;6245877;22;20897;-81
2021/05/28 01:06:04;;;;;;;12.53;5.57;;;9.40;99.90;;;;;;6276782;22;20452;-83
2021/05/28 01:08:30;;;;;;;12.07;6.40;;;9.40;99.90;;;;;;6274781;22;20422;-83
2021/05/28 01:10:57;;;;;;;8.77;5.33;;;9.40;99.90;;;;;;6275248;22;20542;-81
2021/05/28 01:13:24;;;;;;;8.27;6.00;;;9.40;99.90;;;;;;6272011;22;20419;-83
2021/05/28 01:15:50;;;;;;;7.80;6.10;;;9.40;99.90;;;;;;6276073;22;20403;-83
2021/05/28 01:18:17;;;;;;;8.43;6.10;;;9.40;99.90;;;;;;6275078;22;20406;-84
2021/05/28 01:20:44;;;;;;;14.93;6.40;;;9.40;99.90;;;;;;6275286;22;20410;-83
2021/05/28 01:23:12;;;;;;;10.37;5.70;;;9.40;99.90;;;;;;6274967;22;20468;-83
2021/05/28 01:25:38;;;;;;;7.67;5.93;;;9.50;99.90;;;;;;6271508;22;20454;-84
2021/05/28 01:28:05;;;;;;;8.17;5.37;;;9.50;99.90;;;;;;6266542;22;20443;-83
2021/05/28 01:30:32;;;;;;;8.60;5.80;;;9.50;99.90;;;;;;6276281;22;20391;-84
2021/05/28 01:32:58;;;;;;;8.57;6.77;;;9.50;99.90;;;;;;6274177;22;20400;-84
2021/05/28 01:35:25;;;;;;;9.87;6.43;;;9.40;99.90;;;;;;6277319;22;20757;-83
2021/05/28 01:37:52;;;;;;;10.63;6.30;;;9.40;99.90;;;;;;6275689;22;20553;-84
2021/05/28 01:40:21;;;;;;;12.40;6.20;;;9.40;99.90;;;;;;6268536;22;20418;-83
2021/05/28 01:42:47;;;;;;;11.10;7.03;;;9.40;99.90;;;;;;6249846;22;20498;-84
2021/05/28 01:45:15;;;;;;;8.03;6.30;;;9.40;99.90;;;;;;6248183;22;20421;-83
2021/05/28 01:47:42;;;;;;;8.33;5.93;;;9.40;99.90;;;;;;6267805;22;20801;-84
2021/05/28 01:50:10;;;;;;;8.83;6.53;;;9.40;99.90;;;;;;6277798;22;20419;-84
2021/05/28 01:52:37;;;;;;;8.67;6.63;;;9.40;99.90;;;;;;6276971;22;20753;-84
2021/05/28 01:55:11;;;;;;;10.03;6.03;;;9.40;99.90;;;;;;6268725;22;20902;-83
2021/05/28 01:57:39;;;;;;;12.00;7.00;;;9.40;99.90;;;;;;6276084;22;20534;-83
2021/05/28 02:00:08;;;;;;;8.83;7.00;;;9.40;99.90;;;;;;6247490;22;20412;-84
2021/05/28 02:02:34;;;;;;;9.00;6.23;;;9.30;99.90;;;;;;6244982;22;20400;-85
2021/05/28 02:05:01;;;;;;;8.63;6.57;;;9.30;99.90;;;;;;6274191;22;20396;-83
2021/05/28 02:07:27;;;;;;;13.77;6.43;;;9.30;99.90;;;;;;6272365;22;20466;-82
2021/05/28 02:09:54;;;;;;;8.90;6.30;;;9.30;99.90;;;;;;6274933;22;20423;-83
2021/05/28 02:12:21;;;;;;;8.40;6.77;;;9.30;99.90;;;;;;6275966;22;20403;-83
2021/05/28 02:14:50;;;;;;;9.80;7.10;;;9.20;99.90;;;;;;6276154;22;20400;-82
2021/05/28 02:17:17;;;;;;;10.20;6.33;;;9.20;99.90;;;;;;6277406;22;20494;-83
2021/05/28 02:19:43;;;;;;;8.83;6.30;;;9.20;99.90;;;;;;6249427;22;20416;-84
2021/05/28 02:22:11;;;;;;;8.30;6.17;;;9.10;99.90;;;;;;6274831;22;20494;-81
2021/05/28 02:24:37;;;;;;;13.70;7.00;;;9.10;99.90;;;;;;6267530;22;20401;-81
2021/05/28 02:27:05;;;;;;;7.57;6.60;;;9.00;99.90;;;;;;6271924;22;20440;-84
2021/05/28 02:29:31;;;;;;;9.93;6.07;;;9.00;99.90;;;;;;6272893;22;20420;-83
2021/05/28 02:31:59;;;;;;;14.20;6.70;;;8.90;99.90;;;;;;6271316;22;20396;-82
2021/05/28 02:34:25;;;;;;;14.50;7.43;;;8.80;99.90;;;;;;6274961;22;20392;-82
2021/05/28 02:36:52;;;;;;;10.60;6.73;;;8.90;99.90;;;;;;6272974;22;21006;-82
2021/05/28 02:39:21;;;;;;;10.27;8.20;;;8.80;99.90;;;;;;6271662;22;20522;-82
2021/05/28 02:41:48;;;;;;;11.13;6.90;;;8.70;99.90;;;;;;6272527;22;20400;-84
2021/05/28 02:44:14;;;;;;;10.57;7.50;;;8.70;99.90;;;;;;6273425;22;20398;-82
2021/05/28 02:46:41;;;;;;;9.13;7.67;;;8.60;99.90;;;;;;6273721;22;20483;-82
2021/05/28 02:49:09;;;;;;;12.47;7.60;;;8.60;99.90;;;;;;6268666;22;20708;-82
2021/05/28 02:51:36;;;;;;;7.97;7.17;;;8.60;99.90;;;;;;6273229;22;20424;-82
2021/05/28 02:54:02;;;;;;;13.43;8.60;;;8.50;99.90;;;;;;6273395;22;20873;-82
2021/05/28 02:56:29;;;;;;;8.60;7.20;;;8.50;99.90;;;;;;6267013;22;21620;-84
2021/05/28 02:58:56;;;;;;;10.70;6.70;;;8.50;99.90;;;;;;6274059;22;20411;-82
2021/05/28 03:01:22;;;;;;;10.37;7.70;;;8.40;99.90;;;;;;6272858;22;20223;-82
2021/05/28 03:03:48;;;;;;;9.40;7.57;;;8.30;99.90;;;;;;6264472;22;20400;-81
2021/05/28 03:06:16;;;;;;;8.90;7.37;;;8.30;99.90;;;;;;6269269;22;20446;-82
2021/05/28 03:08:43;;;;;;;12.73;8.40;;;8.20;99.90;;;;;;6272483;22;20422;-82
2021/05/28 03:11:09;;;;;;;12.60;8.70;;;8.30;99.90;;;;;;6269182;22;20471;-81
2021/05/28 03:13:36;;;;;;;9.97;8.30;;;8.20;99.90;;;;;;6269303;22;20446;-80
2021/05/28 03:16:04;;;;;;;9.95;7.13;;;8.10;99.90;;;;;;6273932;22;20430;-82
2021/05/28 03:18:36;;;;;;;9.70;7.75;;;8.10;99.90;;;;;;6245508;22;20193;-83
2021/05/28 03:23:45;;;;;;;13.80;8.73;;;8.20;99.90;;;;;;6244044;22;20181;-82
2021/05/28 03:26:11;;;;;;;15.43;8.83;;;8.00;99.90;;;;;;6273390;22;20712;-82
2021/05/28 03:28:38;;;;;;;11.45;8.30;;;8.00;99.90;;;;;;6268460;22;20503;-83
2021/05/28 03:31:05;;;;;;;14.80;10.30;;;8.00;99.90;;;;;;6268989;22;20177;-82
2021/05/28 03:33:31;;;;;;;13.73;9.90;;;8.00;99.90;;;;;;6272524;22;20714;-83
2021/05/28 03:35:58;;;;;;;12.43;9.10;;;8.00;99.90;;;;;;6271490;22;20169;-83
2021/05/28 03:38:24;;;;;;;17.38;10.02;;;8.00;99.90;;;;;;6271616;22;20453;-82
2021/05/28 03:40:52;;;;;;;14.15;9.35;;;8.00;99.90;;;;;;6246400;22;20464;-82
2021/05/28 03:43:19;;;;;;;12.87;9.30;;;8.10;99.90;;;;;;6273314;22;20177;-82
2021/05/28 03:45:45;;;;;;;14.13;9.73;;;8.10;99.90;;;;;;6266483;22;20392;-82
2021/05/28 03:48:12;;;;;;;13.85;10.65;;;8.00;99.90;;;;;;6268831;22;20443;-82
2021/05/28 03:50:39;;;;;;;13.75;9.65;;;8.00;99.90;;;;;;6271720;22;20252;-82
2021/05/28 03:53:06;;;;;;;11.47;8.27;;;8.00;99.90;;;;;;6267524;22;20193;-81
2021/05/28 03:55:32;;;;;;;14.97;10.40;;;8.10;99.90;;;;;;6267071;22;20396;-82
2021/05/28 03:58:00;;;;;;;16.27;10.30;;;8.10;99.90;;;;;;6273045;22;21205;-82
2021/05/28 04:00:27;;;;;;;16.67;10.77;;;8.10;99.90;;;;;;6270847;22;20782;-82
2021/05/28 04:02:56;;;;;;;12.18;9.70;;;8.10;99.90;;;;;;6268534;22;20392;-82
2021/05/28 04:05:22;;;;;;;11.40;9.03;;;8.20;99.90;;;;;;6272450;22;20499;-82
2021/05/28 04:07:48;;;;;;;11.87;9.53;;;8.10;99.90;;;;;;6267637;22;20451;-82
2021/05/28 04:10:16;;;;;;;9.97;8.50;;;8.10;99.90;;;;;;6271708;22;20735;-81
2021/05/28 04:12:42;;;;;;;14.63;9.70;;;8.10;99.90;;;;;;6274204;22;20403;-82
2021/05/28 04:15:11;;;;;;;13.73;10.00;;;8.20;99.90;;;;;;6244036;22;20428;-82
2021/05/28 04:17:38;;;;;;;16.10;9.73;;;8.20;99.90;;;;;;6272212;22;20734;-82
2021/05/28 04:20:06;;;;;;;17.10;9.83;;;8.20;99.90;;;;;;6269788;22;20743;-82
2021/05/28 04:22:33;;;;;;;16.23;10.03;;;8.20;99.90;;;;;;6273077;22;20407;-82
2021/05/28 04:25:00;;;;;;;12.23;9.60;;;8.20;99.90;;;;;;6267443;22;20403;-83
2021/05/28 04:27:26;;;;;;;14.97;10.90;;;8.20;99.90;;;;;;6275223;22;20450;-82
2021/05/28 04:29:53;;;;;;;14.63;11.20;;;8.20;99.90;;;;;;6274797;22;20423;-83
2021/05/28 04:32:20;;;;;;;15.83;11.87;;;8.30;99.90;;;;;;6269021;22;20403;-82
2021/05/28 04:34:47;;;;;;;14.77;11.23;;;8.30;99.90;;;;;;6276198;22;20392;-82
2021/05/28 04:37:13;;;;;;;15.43;12.10;;;8.30;99.90;;;;;;6266404;22;20388;-83
2021/05/28 04:39:40;;;;;;;12.97;11.03;;;8.40;99.90;;;;;;6272473;22;20423;-83
2021/05/28 04:42:10;;;;;;;17.67;12.07;;;8.50;99.90;;;;;;6271262;22;20396;-82
2021/05/28 04:44:41;;;;;;;12.97;10.87;;;8.60;99.90;;;;;;6273660;22;20400;-84
2021/05/28 04:47:08;;;;;;;12.90;10.57;;;8.70;99.90;;;;;;6273069;22;20454;-82
2021/05/28 04:49:35;;;;;;;13.93;12.00;;;8.70;99.90;;;;;;6273489;22;20426;-82
2021/05/28 04:52:02;;;;;;;13.50;11.10;;;8.80;99.90;;;;;;6275825;22;20423;-83
2021/05/28 04:54:31;;;;;;;15.03;11.80;;;8.90;99.90;;;;;;6274786;22;20423;-83
2021/05/28 04:56:57;;;;;;;12.93;11.17;;;9.00;99.90;;;;;;6275338;22;20396;-83
2021/05/28 04:59:24;;;;;;;12.30;10.27;;;9.10;99.90;;;;;;6270721;22;20412;-88
2021/05/28 05:01:50;;;;;;;13.70;10.07;;;9.20;99.90;;;;;;6268723;22;20465;-81
2021/05/28 05:04:17;;;;;;;13.97;11.13;;;9.30;99.90;;;;;;6272199;22;20400;-82
2021/05/28 05:06:44;;;;;;;10.63;9.40;;;9.40;99.90;;;;;;6271595;22;20432;-81
2021/05/28 05:09:11;;;;;;;10.80;9.70;;;9.50;99.90;;;;;;6273340;22;20420;-81
2021/05/28 05:11:37;;;;;;;11.83;8.70;;;9.60;99.90;;;;;;6273106;22;20793;-81
2021/05/28 05:14:04;;;;;;;12.13;8.40;;;9.70;99.90;;;;;;6273119;22;20395;-81
2021/05/28 05:16:31;;;;;;;11.37;8.50;;;9.90;99.90;;;;;;6270933;22;20951;-80
2021/05/28 05:18:57;;;;;;;12.57;9.23;;;10.00;99.90;;;;;;6268224;22;20930;-81
2021/05/28 05:21:24;;;;;;;9.77;8.50;;;10.20;99.90;;;;;;6271552;22;20408;-81
2021/05/28 05:23:51;;;;;;;11.13;9.30;;;10.30;99.90;;;;;;6267124;22;20482;-81
2021/05/28 05:26:17;;;;;;;26.03;10.80;;;10.50;99.90;;;;;;6269225;22;20439;-81
2021/05/28 05:28:44;;;;;;;16.40;10.80;;;10.60;99.90;;;;;;6272943;22;20455;-81
2021/05/28 05:31:10;;;;;;;16.63;12.53;;;10.80;99.90;;;;;;6271879;22;20455;-81
2021/05/28 05:33:38;;;;;;;14.60;11.93;;;10.90;99.90;;;;;;6269211;22;20490;-81
2021/05/28 05:36:07;;;;;;;14.00;10.63;;;11.20;99.90;;;;;;6274277;22;20487;-80
2021/05/28 05:38:34;;;;;;;15.20;11.00;;;11.60;99.90;;;;;;6265585;22;20445;-83
2021/05/28 05:41:10;;;;;;;13.97;10.20;;;12.00;99.90;;;;;;6272068;22;20474;-83
2021/05/28 05:43:36;;;;;;;13.07;10.97;;;12.50;99.90;;;;;;6264573;22;20528;-83
2021/05/28 05:46:03;;;;;;;16.33;11.63;;;12.90;99.90;;;;;;6269935;22;20414;-83
2021/05/28 05:48:31;;;;;;;15.43;10.80;;;13.20;99.90;;;;;;6273368;22;20500;-83
2021/05/28 05:50:58;;;;;;;13.47;11.10;;;13.50;99.90;;;;;;6272156;22;20466;-84
2021/05/28 05:53:24;;;;;;;16.03;10.97;;;13.70;99.90;;;;;;6274312;22;20399;-84
2021/05/28 05:55:51;;;;;;;14.67;12.20;;;14.00;99.90;;;;;;6273590;22;20396;-84
2021/05/28 05:58:19;;;;;;;14.00;10.90;;;14.10;99.90;;;;;;6267772;22;20407;-84
2021/05/28 06:00:45;;;;;;;10.97;9.83;;;14.40;99.90;;;;;;6271681;22;20411;-83
2021/05/28 06:03:12;;;;;;;12.33;9.50;;;14.60;99.90;;;;;;6272666;22;20399;-83
2021/05/28 06:05:39;;;;;;;14.23;10.53;;;14.80;99.90;;;;;;6273296;22;20396;-83
2021/05/28 06:08:05;;;;;;;15.60;9.90;;;15.00;99.90;;;;;;6272579;22;20450;-82
2021/05/28 06:10:32;;;;;;;12.07;9.47;;;15.30;99.90;;;;;;6265915;22;20392;-85
2021/05/28 06:13:02;;;;;;;11.43;9.30;;;15.70;99.90;;;;;;6263429;22;20408;-82
2021/05/28 06:15:33;;;;;;;16.63;11.13;;;16.00;99.90;;;;;;6272062;22;20464;-84
2021/05/28 06:17:59;;;;;;;13.80;10.30;;;16.30;99.90;;;;;;6264898;22;20428;-84
2021/05/28 06:20:26;;;;;;;14.90;11.47;;;16.50;99.90;;;;;;6261402;22;20495;-83
2021/05/28 06:22:52;;;;;;;14.33;11.47;;;16.60;99.90;;;;;;6241764;22;20398;-82
2021/05/28 06:25:19;;;;;;;14.90;12.00;;;16.60;99.90;;;;;;6275013;22;20400;-86
2021/05/28 06:27:46;;;;;;;16.60;11.77;;;16.60;99.90;;;;;;6269753;22;20452;-84
2021/05/28 06:30:14;;;;;;;17.77;12.27;;;16.40;99.90;;;;;;6270420;22;20412;-82
2021/05/28 06:32:42;;;;;;;16.63;12.50;;;16.30;99.90;;;;;;6266188;22;20396;-80
2021/05/28 06:35:09;;;;;;;15.27;11.33;;;16.10;99.90;;;;;;6264650;22;21150;-81
2021/05/28 06:37:36;;;;;;;16.30;12.77;;;15.90;99.90;;;;;;6273819;22;20403;-81
2021/05/28 06:40:03;;;;;;;19.30;13.20;;;15.70;99.90;;;;;;6241693;22;20447;-82
2021/05/28 06:42:30;;;;;;;21.83;13.90;;;15.50;99.90;;;;;;6269308;22;20400;-81
2021/05/28 06:44:57;;;;;;;14.83;11.90;;;15.40;99.90;;;;;;6271001;22;20393;-82
2021/05/28 06:47:25;;;;;;;18.03;12.73;;;15.30;99.90;;;;;;6264236;22;20544;-83
2021/05/28 06:49:52;;;;;;;19.87;13.40;;;15.20;99.90;;;;;;6271873;22;20399;-83
2021/05/28 06:52:20;;;;;;;18.60;13.10;;;15.00;99.90;;;;;;6273452;22;20403;-82
2021/05/28 06:54:46;;;;;;;19.13;13.97;;;14.90;99.90;;;;;;6273076;22;20846;-82
2021/05/28 06:57:13;;;;;;;18.00;13.60;;;14.70;99.90;;;;;;6275800;22;20377;-83
2021/05/28 06:59:40;;;;;;;12.97;11.60;;;14.60;99.90;;;;;;6270356;22;20919;-85
2021/05/28 07:02:08;;;;;;;15.63;11.00;;;14.50;99.90;;;;;;6272768;22;20375;-86
2021/05/28 07:04:35;;;;;;;17.13;10.17;;;14.30;99.90;;;;;;6245219;22;20400;-86
2021/05/28 07:07:02;;;;;;;11.63;10.40;;;14.20;99.90;;;;;;6237135;22;20481;-83
2021/05/28 07:09:29;;;;;;;13.60;10.77;;;14.10;99.90;;;;;;6273985;22;20420;-80
2021/05/28 07:11:55;;;;;;;15.30;10.97;;;14.10;99.90;;;;;;6271921;22;20399;-80
2021/05/28 07:14:22;;;;;;;11.93;10.30;;;14.10;99.90;;;;;;6267142;22;20404;-79
2021/05/28 07:16:51;;;;;;;13.67;9.13;;;14.00;99.90;;;;;;6272797;22;20729;-82
2021/05/28 07:19:20;;;;;;;13.50;10.00;;;14.00;99.90;;;;;;6272593;22;20426;-84
2021/05/28 07:21:46;;;;;;;14.27;9.50;;;14.00;99.90;;;;;;6273779;22;20445;-83
2021/05/28 07:24:14;;;;;;;15.13;11.20;;;14.10;99.90;;;;;;6274588;22;20404;-82
2021/05/28 07:26:40;;;;;;;11.13;8.83;;;14.10;99.90;;;;;;6266797;22;20776;-84
2021/05/28 07:29:07;;;;;;;11.47;8.77;;;14.20;99.90;;;;;;6271169;22;20424;-83
2021/05/28 07:31:34;;;;;;;12.47;8.60;;;14.30;99.90;;;;;;6273996;22;20431;-85
2021/05/28 07:34:01;;;;;;;10.67;8.13;;;14.60;99.90;;;;;;6267457;22;20378;-82
2021/05/28 07:36:27;;;;;;;8.93;7.30;;;14.80;99.90;;;;;;6273110;22;20396;-82
2021/05/28 07:41:37;;;;;;;12.53;6.87;;;15.40;99.90;;;;;;6242670;22;20451;-82
2021/05/28 07:44:05;;;;;;;7.67;6.87;;;15.80;99.90;;;;;;6270146;22;20449;-83
2021/05/28 07:46:32;;;;;;;8.10;7.00;;;16.20;99.90;;;;;;6276818;22;20400;-83
2021/05/28 07:49:02;;;;;;;7.30;5.70;;;16.50;99.90;;;;;;6247602;22;20458;-84
2021/05/28 07:51:29;;;;;;;7.57;5.90;;;16.80;99.90;;;;;;6260707;22;20432;-84
2021/05/28 07:54:01;;;;;;;9.00;7.30;;;17.10;99.90;;;;;;6270303;22;20431;-84
2021/05/28 07:56:28;;;;;;;8.53;6.00;;;17.40;99.90;;;;;;6272264;22;20392;-85
2021/05/28 07:59:15;;;;;;;7.20;6.50;;;17.50;99.90;;;;;;6267921;22;20447;-86
2021/05/28 08:01:44;;;;;;;7.17;5.67;;;17.80;99.90;;;;;;6253067;22;20419;-86
2021/05/28 08:04:12;;;;;;;6.83;6.20;;;17.90;99.90;;;;;;6273236;22;20442;-85
2021/05/28 08:06:46;;;;;;;15.57;5.63;;;18.10;99.90;;;;;;6271590;22;20435;-84
2021/05/28 08:09:15;;;;;;;7.70;6.90;;;18.40;99.90;;;;;;6268804;22;20429;-85
2021/05/28 08:11:42;;;;;;;7.67;5.93;;;18.50;99.90;;;;;;6262624;22;20396;-82
2021/05/28 08:14:08;;;;;;;8.87;7.00;;;18.60;99.90;;;;;;6272119;22;21109;-83
2021/05/28 08:16:36;;;;;;;7.67;6.70;;;18.60;99.90;;;;;;6272418;22;20519;-85
2021/05/28 08:19:04;;;;;;;7.77;5.90;;;18.60;99.90;;;;;;6267940;22;20451;-87
2021/05/28 08:21:31;;;;;;;7.37;6.40;;;18.50;99.90;;;;;;6271199;22;20406;-87
2021/05/28 08:23:58;;;;;;;10.60;6.57;;;18.60;99.90;;;;;;6271502;22;20400;-87
2021/05/28 08:26:24;;;;;;;6.73;5.77;;;18.60;99.90;;;;;;6267965;22;20521;-85
2021/05/28 08:28:51;;;;;;;8.73;5.87;;;18.50;99.90;;;;;;6272449;22;20503;-83
2021/05/28 08:31:19;;;;;;;9.50;6.37;;;18.50;99.90;;;;;;6271177;22;20684;-85
2021/05/28 08:33:47;;;;;;;6.50;5.90;;;18.50;99.90;;;;;;6273837;22;20436;-84
2021/05/28 08:36:13;;;;;;;8.20;6.90;;;18.40;99.90;;;;;;6269713;22;20873;-85
2021/05/28 08:38:40;;;;;;;11.33;7.43;;;18.30;99.90;;;;;;6270366;22;20456;-83
2021/05/28 08:41:09;;;;;;;7.43;6.07;;;18.30;99.90;;;;;;6269724;22;20404;-85
2021/05/28 08:43:36;;;;;;;9.73;6.90;;;18.20;99.90;;;;;;6268932;22;20487;-84
2021/05/28 08:46:06;;;;;;;11.37;5.70;;;18.10;99.90;;;;;;6271997;22;20468;-82
2021/05/28 08:48:33;;;;;;;5.77;5.17;;;17.90;99.90;;;;;;6270486;22;20427;-86
2021/05/28 08:51:01;;;;;;;9.63;6.63;;;17.90;99.90;;;;;;6239645;22;21434;-85
2021/05/28 08:53:28;;;;;;;8.00;6.80;;;17.60;99.90;;;;;;6269068;22;20396;-86
2021/05/28 08:55:55;;;;;;;8.17;5.77;;;17.60;99.90;;;;;;6269395;22;20439;-84
2021/05/28 08:58:22;;;;;;;7.60;5.53;;;17.40;99.90;;;;;;6241999;22;20515;-84
2021/05/28 09:00:50;;;;;;;6.87;5.40;;;17.40;99.90;;;;;;6272540;22;20407;-83
2021/05/28 09:03:20;;;;;;;6.50;5.70;;;17.30;99.90;;;;;;6274530;22;20400;-84
2021/05/28 09:05:47;;;;;;;7.83;5.60;;;17.20;99.90;;;;;;6273333;22;20482;-83
2021/05/28 09:08:23;;;;;;;6.70;5.50;;;17.30;99.90;;;;;;6268045;22;20403;-84
2021/05/28 09:10:49;;;;;;;5.97;4.70;;;17.20;99.90;;;;;;6273146;22;20406;-85
2021/05/28 09:13:18;;;;;;;6.73;5.13;;;17.20;99.90;;;;;;6274000;22;20494;-82
2021/05/28 09:15:46;;;;;;;6.93;5.20;;;17.20;99.90;;;;;;6240266;22;20427;-82
2021/05/28 09:18:13;;;;;;;7.37;5.57;;;17.30;99.90;;;;;;6272530;22;20475;-83
2021/05/28 09:20:40;;;;;;;4.70;4.30;;;17.40;99.90;;;;;;6272763;22;20404;-83
2021/05/28 09:23:17;;;;;;;5.47;4.93;;;17.50;99.90;;;;;;6268238;22;20402;-83
2021/05/28 09:25:52;;;;;;;7.63;6.00;;;17.60;99.90;;;;;;6274030;22;20399;-84
2021/05/28 09:28:19;;;;;;;8.70;6.73;;;17.50;99.90;;;;;;6274257;22;20407;-83
2021/05/28 09:30:57;;;;;;;9.47;5.67;;;17.60;99.90;;;;;;6266900;22;20785;-84
2021/05/28 09:33:25;;;;;;;6.53;4.83;;;17.80;99.90;;;;;;6244855;22;20410;-83
2021/05/28 09:35:53;;;;;;;7.60;5.50;;;17.80;99.90;;;;;;6248879;22;20917;-87
2021/05/28 09:38:23;;;;;;;6.40;4.90;;;17.80;99.90;;;;;;6247896;22;20494;-82
2021/05/28 09:40:50;;;;;;;8.67;5.80;;;17.90;99.90;;;;;;6267873;22;20490;-84
2021/05/28 09:43:23;;;;;;;10.50;5.50;;;18.10;99.90;;;;;;6273698;22;20407;-84
2021/05/28 09:45:50;;;;;;;9.30;6.67;;;18.10;99.90;;;;;;6244812;22;20453;-83
2021/05/28 09:48:23;;;;;;;6.30;5.67;;;18.20;99.90;;;;;;6247012;22;20491;-83
2021/05/28 09:50:51;;;;;;;5.70;5.03;;;18.40;99.90;;;;;;6268404;22;20396;-83
2021/05/28 09:53:36;;;;;;;6.20;5.30;;;18.40;99.90;;;;;;6272729;22;20992;-83
2021/05/28 09:56:26;;;;;;;6.40;4.40;;;18.40;99.90;;;;;;6250220;22;20399;-84
2021/05/28 09:58:55;;;;;;;4.40;4.00;;;18.40;99.90;;;;;;6248206;22;20452;-84
2021/05/28 10:01:22;;;;;;;4.97;4.27;;;18.40;99.90;;;;;;6276025;22;20892;-84
2021/05/28 10:04:00;;;;;;;4.00;3.40;;;18.30;99.90;;;;;;6274860;22;20396;-84
2021/05/28 10:06:28;;;;;;;5.20;4.20;;;18.40;99.90;;;;;;6264765;22;20403;-84
2021/05/28 10:09:02;;;;;;;4.60;3.87;;;18.40;99.90;;;;;;6272093;22;20412;-82
2021/05/28 10:11:30;;;;;;;6.77;4.47;;;18.40;99.90;;;;;;6247652;22;20399;-83
2021/05/28 10:13:56;;;;;;;4.07;3.67;;;18.60;99.90;;;;;;6267722;22;20775;-84
2021/05/28 10:16:24;;;;;;;5.47;4.40;;;18.60;99.90;;;;;;6273873;22;20411;-83
2021/05/28 10:18:53;;;;;;;5.60;4.53;;;18.60;99.90;;;;;;6244493;22;20452;-83
2021/05/28 10:21:20;;;;;;;5.37;4.27;;;18.50;99.90;;;;;;6240877;22;20400;-82
2021/05/28 10:23:47;;;;;;;5.70;4.30;;;18.50;99.90;;;;;;6272803;22;20403;-81
2021/05/28 10:26:17;;;;;;;6.03;4.63;;;18.70;99.90;;;;;;6268999;22;20404;-81
2021/05/28 10:28:46;;;;;;;8.40;4.80;;;18.60;99.90;;;;;;6243523;22;20924;-81
2021/05/28 10:31:14;;;;;;;5.40;4.90;;;18.50;99.90;;;;;;6272780;22;21192;-80
2021/05/28 10:33:47;;;;;;;6.70;4.87;;;18.60;99.90;;;;;;6242863;22;20422;-82
2021/05/28 10:36:33;;;;;;;6.20;5.33;;;18.70;99.90;;;;;;6271586;22;20404;-83
2021/05/28 10:39:07;;;;;;;7.10;3.97;;;18.50;99.90;;;;;;6246233;22;20451;-80
2021/05/28 10:41:38;;;;;;;5.97;4.43;;;18.50;99.90;;;;;;6263584;22;21100;-82
2021/05/28 10:44:08;;;;;;;4.50;4.00;;;18.50;99.90;;;;;;6273358;22;20508;-85
2021/05/28 10:46:36;;;;;;;4.30;3.90;;;18.40;99.90;;;;;;6271962;22;20400;-83
2021/05/28 10:49:09;;;;;;;4.43;3.60;;;18.40;99.90;;;;;;6215827;22;20456;-83
2021/05/28 10:52:05;;;;;;;5.57;3.50;;;18.40;99.90;;;;;;6244484;22;20443;-83
2021/05/28 10:54:34;;;;;;;3.93;3.50;;;18.40;99.90;;;;;;6243183;22;20454;-81
2021/05/28 10:57:18;;;;;;;5.37;3.93;;;18.40;99.90;;;;;;6268225;22;20400;-82
2021/05/28 10:59:46;;;;;;;4.90;3.90;;;18.40;99.90;;;;;;6268640;22;21015;-84
2021/05/28 11:02:12;;;;;;;5.40;3.90;;;18.60;99.90;;;;;;6236681;22;20897;-83
2021/05/28 11:04:58;;;;;;;4.50;3.87;;;18.60;99.90;;;;;;6272434;22;20423;-79
2021/05/28 11:07:34;;;;;;;7.40;4.17;;;18.60;99.90;;;;;;6272596;22;20404;-80
2021/05/28 11:10:17;;;;;;;4.13;3.30;;;18.80;99.90;;;;;;6244835;22;20423;-79
2021/05/28 11:12:45;;;;;;;4.17;3.30;;;18.70;99.90;;;;;;6274998;22;20510;-79
2021/05/28 11:15:14;;;;;;;5.07;3.50;;;18.80;99.90;;;;;;6265316;22;20404;-81
2021/05/28 11:17:58;;;;;;;4.00;3.17;;;18.80;99.90;;;;;;6236287;22;20959;-78
2021/05/28 11:20:27;;;;;;;3.40;3.10;;;19.00;99.90;;;;;;6249433;22;20432;-78
2021/05/28 11:22:54;;;;;;;3.60;3.00;;;18.90;99.90;;;;;;6271273;22;20414;-84
2021/05/28 11:25:23;;;;;;;5.60;3.90;;;19.00;99.90;;;;;;6241734;22;20757;-83
2021/05/28 11:27:58;;;;;;;4.47;3.30;;;19.20;99.90;;;;;;6220162;22;20434;-79
2021/05/28 11:30:28;;;;;;;4.40;3.53;;;19.10;99.90;;;;;;6268381;22;20419;-83
2021/05/28 11:32:55;;;;;;;3.70;3.40;;;19.20;99.90;;;;;;6244679;22;20400;-80
2021/05/28 11:35:24;;;;;;;3.50;2.77;;;19.10;99.90;;;;;;6220261;22;20489;-84
2021/05/28 11:37:54;;;;;;;3.43;2.60;;;19.10;99.90;;;;;;6273473;22;20534;-83
2021/05/28 11:40:22;;;;;;;3.80;3.10;;;19.10;99.90;;;;;;6242577;22;20420;-80
2021/05/28 11:42:49;;;;;;;2.70;2.50;;;19.00;99.90;;;;;;6276070;22;20495;-81
2021/05/28 11:45:18;;;;;;;4.13;2.73;;;19.00;99.90;;;;;;6276006;22;20423;-83
2021/05/28 11:47:45;;;;;;;3.10;2.80;;;19.00;99.90;;;;;;6270498;22;20790;-81
2021/05/28 11:50:14;;;;;;;4.47;3.00;;;19.00;99.90;;;;;;6272818;22;20424;-83
2021/05/28 11:52:41;;;;;;;4.23;2.90;;;19.10;99.90;;;;;;6266503;22;20432;-81
2021/05/28 11:55:10;;;;;;;3.17;2.70;;;18.90;99.90;;;;;;6243406;22;20407;-81
2021/05/28 11:57:37;;;;;;;4.33;2.90;;;19.00;99.90;;;;;;6241979;22;20518;-84
2021/05/28 12:00:07;;;;;;;3.47;2.93;;;19.00;99.90;;;;;;6272420;22;20507;-80
2021/05/28 12:02:41;;;;;;;3.30;3.00;;;18.80;99.90;;;;;;6271191;22;20435;-80
2021/05/28 12:05:17;;;;;;;3.37;2.57;;;18.90;99.90;;;;;;6249010;22;20395;-82
2021/05/28 12:07:45;;;;;;;3.17;2.87;;;18.80;99.90;;;;;;6246775;22;20411;-79
2021/05/28 12:10:13;;;;;;;3.10;2.80;;;18.70;99.90;;;;;;6275371;22;20448;-80
2021/05/28 12:12:56;;;;;;;4.90;2.70;;;18.70;99.90;;;;;;6273261;22;20396;-79
2021/05/28 12:15:25;;;;;;;3.20;2.50;;;18.60;99.90;;;;;;6270505;22;20392;-80
2021/05/28 12:17:53;;;;;;;3.00;2.80;;;18.60;99.90;;;;;;6245753;22;20439;-83
2021/05/28 12:20:23;;;;;;;2.60;2.40;;;18.50;99.90;;;;;;6243929;22;20416;-81
2021/05/28 12:22:59;;;;;;;3.00;2.77;;;18.50;99.90;;;;;;6246418;22;20411;-82
2021/05/28 12:25:27;;;;;;;3.50;2.30;;;18.40;99.90;;;;;;6245996;22;20400;-80
2021/05/28 12:27:53;;;;;;;2.83;2.37;;;18.50;99.90;;;;;;6272979;22;20976;-80
2021/05/28 12:30:25;;;;;;;4.33;2.30;;;18.40;99.90;;;;;;6268991;22;20420;-81
2021/05/28 12:32:53;;;;;;;3.30;2.00;;;18.40;99.90;;;;;;6264977;22;20426;-79
2021/05/28 12:35:21;;;;;;;2.60;2.40;;;18.60;99.90;;;;;;6244978;22;20545;-79
2021/05/28 12:38:03;;;;;;;3.60;2.30;;;18.50;99.90;;;;;;6271837;22;20448;-79
2021/05/28 12:40:30;;;;;;;2.87;2.40;;;18.50;99.90;;;;;;6241547;22;20426;-79
2021/05/28 12:42:57;;;;;;;3.40;2.40;;;18.60;99.90;;;;;;6272097;22;20404;-79
2021/05/28 12:45:35;;;;;;;3.00;2.70;;;18.50;99.90;;;;;;6271204;22;20456;-79
2021/05/28 12:48:02;;;;;;;3.77;2.43;;;18.60;99.90;;;;;;6241720;22;20553;-79
2021/05/28 12:50:33;;;;;;;2.50;2.30;;;18.60;99.90;;;;;;6271486;22;20780;-80
2021/05/28 12:53:01;;;;;;;2.43;2.23;;;18.60;99.90;;;;;;6244779;22;20436;-79
2021/05/28 12:55:32;;;;;;;2.73;2.20;;;18.60;99.90;;;;;;6236648;23;20771;-79